Reynosa, México

12:12 PM CST en Octubre 30, 2014 (GMT -0600)
RAWS SANTA ANA NWR TX US | Change Station
CLOSE
Current Station
Estación meteorológica personal
Location: Hidalgo, TX
Altura: 89 ft
Estaciones meteorológicas cercanas

Alt 89 ft 26.08 °N, 98.16 °W | Updated 27 minutes ago

Despejado
Despejado
87 ° F
Sensación térmica 92 ° F
N
3
Viento Variable Viento desde ESE
Gusts 7.0 mph

Hoy
Alta -- | Baja -- ° F
--% Posibilidad de precipitaciones
Ayer
Alta -- | Baja -- ° F
Precip. -- pul
6:40 AM 5:52 PM
Creciente, 46% visible
Presión 30.07 pul
Visibilidad 10.0 Millas
Nubes Baja 3800 ft
Índice de calor 92 ° F
Punto de rocío 70 ° F
Humedad 57%
Precipitaciones 0.00 pul
Espesor de la nieve No disponible.
UV 7 de una escala de 12
Polen No disponible.
Calidad del aire No disponible.
Flu Activity No disponible.
METAR KMFE 301753Z 00000KT 10SM FEW038 29/19 A3008 RMK AO2 SLP182 T02940194 10294 20206 58012

More Conditions Fewer Conditions

Presión 30.07 pul
Visibilidad 10.0 Millas
Nubes Baja 3800 ft
Índice de calor 92 ° F
Punto de rocío 70 ° F
Humedad 57%
Precipitaciones 0.00 pul
Espesor de la nieve No disponible.
UV 7 de una escala de 12
Polen No disponible.
Calidad del aire No disponible.
Flu Activity No disponible.
METAR KMFE 301753Z 00000KT 10SM FEW038 29/19 A3008 RMK AO2 SLP182 T02940194 10294 20206 58012

More Conditions Fewer Conditions

10-Day Weather Forecast

Almanac

Astronomía

Oct. 30, 2014 Salida Puesta
Hora real
Crepúsculo civil
Crepúsculo náutico
Crepúsculo astronómico
Luna
Horas de luz
Horas de luz
Tomorrow will be .
, % of the Moon is Illuminated

Extremos de hoy

Máximos del país Bajas del país

Community

WunderPhotos

Upload Photos

1,766,417 ¡fotos cargadas!

WunderBlogs® & News

Nearby

Calidad del aire

  Calidad del aire Índice AQ Contaminante
Not available.

Grosos de nieve

Estación Profundido Altura

Actividad de terremotos

Ciudad Distance Mag. Tiempo y dato
Magnitud mínima muestra es 2,5.

Temperaturas de aguas costeras

Lugar Temperatura

Estaciones meteorológicas cercanas